Time;durP1;ratioP1;P1;durP2;ratioP2;P2;SDS_P1;SDS_P2;PMS_P1;PMS_P2;Temp;Humidity;BMP_temperature;BMP_pressure;BME280_temperature;BME280_humidity;BME280_pressure;Samples;Min_cycle;Max_cycle;Signal;HPM_P1;HPM_P2
2022/12/10 00:02:06;;;;;;;51.65;19.17;;;;;;;-0.86;100.00;99857.47;6303523;28;20039;-88
2022/12/10 00:05:09;;;;;;;51.65;18.40;;;;;;;-0.84;100.00;99855.69;6308765;28;20084;-88
2022/12/10 00:08:11;;;;;;;48.28;18.48;;;;;;;-0.86;100.00;99852.38;6301872;28;20490;-88
2022/12/10 00:11:15;;;;;;;54.92;18.88;;;;;;;-0.83;100.00;99849.69;6305924;28;20036;-88
2022/12/10 00:14:16;;;;;;;58.95;19.75;;;;;;;-0.81;100.00;99859.81;6307929;28;20635;-88
2022/12/10 00:17:18;;;;;;;54.72;18.55;;;;;;;-0.82;100.00;99855.59;6304478;28;20118;-88
2022/12/10 00:20:20;;;;;;;57.10;18.98;;;;;;;-0.80;100.00;99862.25;6308071;28;20040;-88
2022/12/10 00:23:23;;;;;;;62.65;20.40;;;;;;;-0.82;100.00;99861.53;6308342;28;20119;-88
2022/12/10 00:26:28;;;;;;;63.55;18.85;;;;;;;-0.88;100.00;99860.06;6295509;28;20043;-89
2022/12/10 00:29:30;;;;;;;63.17;20.40;;;;;;;-0.87;100.00;99860.88;6309255;28;20044;-89
2022/12/10 00:32:32;;;;;;;55.80;19.08;;;;;;;-0.85;100.00;99860.81;6308105;28;20036;-88
2022/12/10 00:35:40;;;;;;;68.80;21.02;;;;;;;-0.86;100.00;99865.06;6306608;28;20113;-88
2022/12/10 00:38:44;;;;;;;59.97;20.75;;;;;;;-0.88;100.00;99861.78;6299076;28;20074;-88
2022/12/10 00:41:46;;;;;;;59.72;21.45;;;;;;;-0.88;100.00;99861.78;6306414;28;20048;-88
2022/12/10 00:44:48;;;;;;;56.60;18.73;;;;;;;-0.90;100.00;99866.09;6305331;28;20346;-88
2022/12/10 00:47:49;;;;;;;64.75;21.13;;;;;;;-0.88;100.00;99866.84;6303700;28;20094;-88
2022/12/10 00:51:04;;;;;;;59.60;19.75;;;;;;;-0.87;100.00;99869.34;6305875;28;20379;-88
2022/12/10 00:54:07;;;;;;;69.93;22.85;;;;;;;-0.87;100.00;99871.88;6308038;28;20291;-88
2022/12/10 00:57:09;;;;;;;64.28;20.85;;;;;;;-0.87;100.00;99873.56;6308223;28;20064;-88
2022/12/10 01:00:12;;;;;;;58.88;19.98;;;;;;;-0.83;100.00;99875.09;6307460;28;20055;-88
2022/12/10 01:03:15;;;;;;;57.22;19.92;;;;;;;-0.78;100.00;99878.28;6308223;28;20051;-88
2022/12/10 01:06:28;;;;;;;63.75;23.58;;;;;;;-0.81;100.00;99878.41;6305858;28;20040;-88
2022/12/10 01:09:30;;;;;;;68.05;20.63;;;;;;;-0.79;100.00;99879.19;6318652;28;20066;-88
2022/12/10 01:12:32;;;;;;;67.00;22.42;;;;;;;-0.82;100.00;99884.41;6312232;28;20051;-88
2022/12/10 01:15:38;;;;;;;63.58;22.17;;;;;;;-0.79;100.00;99891.06;6306317;28;20046;-88
2022/12/10 01:18:40;;;;;;;61.53;21.65;;;;;;;-0.80;100.00;99881.78;6293181;28;20039;-88
2022/12/10 01:21:42;;;;;;;70.38;22.10;;;;;;;-0.75;100.00;99885.75;6310550;28;20033;-88
2022/12/10 01:24:43;;;;;;;66.15;22.30;;;;;;;-0.78;100.00;99888.44;6311280;28;20044;-88
2022/12/10 01:27:47;;;;;;;69.30;22.42;;;;;;;-0.79;100.00;99891.88;6312496;28;20036;-88
2022/12/10 01:30:48;;;;;;;67.22;22.63;;;;;;;-0.81;100.00;99892.84;6309546;28;20036;-88
2022/12/10 01:33:51;;;;;;;65.85;21.90;;;;;;;-0.78;100.00;99893.53;6309850;28;20189;-88
2022/12/10 01:36:54;;;;;;;62.45;21.85;;;;;;;-0.75;100.00;99893.38;6312056;28;20118;-88
2022/12/10 01:39:56;;;;;;;56.15;20.60;;;;;;;-0.76;100.00;99890.91;6311961;28;20040;-88
2022/12/10 01:42:58;;;;;;;69.35;22.85;;;;;;;-0.76;100.00;99898.53;6309516;28;20062;-88
2022/12/10 01:46:01;;;;;;;59.60;21.25;;;;;;;-0.81;100.00;99897.91;6309669;28;20048;-88
2022/12/10 01:49:09;;;;;;;77.55;22.73;;;;;;;-0.75;100.00;99900.19;6309380;28;20048;-88
2022/12/10 01:52:12;;;;;;;80.25;22.77;;;;;;;-0.75;100.00;99898.47;6310795;28;20040;-88
2022/12/10 01:55:41;;;;;;;69.70;21.85;;;;;;;-0.72;100.00;99911.06;6309966;28;20051;-88
2022/12/10 01:58:44;;;;;;;60.42;20.25;;;;;;;-0.71;100.00;99900.00;6309680;28;20048;-88
2022/12/10 02:02:07;;;;;;;70.18;21.70;;;;;;;-0.76;100.00;99903.63;6308071;28;20036;-88
2022/12/10 02:05:56;;;;;;;55.22;19.92;;;;;;;-0.78;100.00;99907.94;6310064;28;20056;-88
2022/12/10 02:09:37;;;;;;;67.38;20.30;;;;;;;-0.79;100.00;99899.50;6272745;28;20567;-88
2022/12/10 02:13:03;;;;;;;54.67;18.55;;;;;;;-0.76;100.00;99903.63;6275802;28;20364;-88
2022/12/10 02:16:21;;;;;;;62.55;20.30;;;;;;;-0.71;100.00;99896.63;6264844;28;20414;-88
2022/12/10 02:19:38;;;;;;;52.10;20.35;;;;;;;-0.74;100.00;99909.47;6271400;28;20524;-88
2022/12/10 02:22:46;;;;;;;61.55;20.38;;;;;;;-0.71;100.00;99897.44;6272205;28;20063;-88
2022/12/10 02:25:56;;;;;;;52.05;18.90;;;;;;;-0.69;100.00;99895.69;6282003;28;20087;-88
2022/12/10 02:29:22;;;;;;;57.22;19.95;;;;;;;-0.71;100.00;99889.81;6261149;28;20454;-88
2022/12/10 02:32:35;;;;;;;61.97;20.55;;;;;;;-0.72;100.00;99888.19;6279505;28;20081;-88
2022/12/10 02:35:40;;;;;;;56.22;18.63;;;;;;;-0.71;100.00;99877.13;6262574;28;20891;-88
2022/12/10 02:38:44;;;;;;;58.42;18.35;;;;;;;-0.72;100.00;99880.56;6264708;28;20051;-88
2022/12/10 02:41:54;;;;;;;63.85;19.95;;;;;;;-0.75;100.00;99884.94;6269405;28;20048;-88
2022/12/10 02:44:57;;;;;;;50.17;17.77;;;;;;;-0.76;100.00;99884.13;6308460;28;20055;-88
2022/12/10 02:48:04;;;;;;;39.65;14.60;;;;;;;-0.77;100.00;99894.34;6310439;28;20036;-88
2022/12/10 02:51:11;;;;;;;48.75;15.85;;;;;;;-0.74;100.00;99892.50;6305477;28;20499;-88
2022/12/10 02:54:52;;;;;;;50.33;18.85;;;;;;;-0.73;100.00;99891.59;6310053;28;20508;-88
2022/12/10 02:58:28;;;;;;;61.33;20.73;;;;;;;-0.76;100.00;99896.81;6255050;28;20041;-88
2022/12/10 03:01:43;;;;;;;54.85;19.02;;;;;;;-0.75;100.00;99890.03;6232748;28;20048;-88
2022/12/10 03:05:15;;;;;;;55.40;20.13;;;;;;;-0.74;100.00;99895.06;6241056;28;20124;-88
2022/12/10 03:08:22;;;;;;;57.17;19.40;;;;;;;-0.75;100.00;99890.03;6256366;28;20053;-88
2022/12/10 03:11:24;;;;;;;46.50;17.30;;;;;;;-0.76;100.00;99890.91;6232485;28;20048;-88
2022/12/10 03:14:29;;;;;;;50.35;18.27;;;;;;;-0.78;100.00;99896.06;6256627;28;20057;-88
2022/12/10 03:17:32;;;;;;;51.85;17.15;;;;;;;-0.78;100.00;99887.63;6255708;28;20053;-88
2022/12/10 03:20:38;;;;;;;45.83;16.25;;;;;;;-0.81;100.00;99892.84;6255807;28;20119;-88
2022/12/10 03:23:44;;;;;;;43.88;15.68;;;;;;;-0.80;100.00;99890.22;6239460;28;20112;-88
2022/12/10 03:26:48;;;;;;;47.22;15.75;;;;;;;-0.85;100.00;99883.69;6247585;28;20057;-88
2022/12/10 03:29:56;;;;;;;37.10;15.52;;;;;;;-0.85;100.00;99889.56;6250347;28;20048;-88
2022/12/10 03:32:58;;;;;;;49.60;16.08;;;;;;;-0.82;100.00;99881.84;6264766;28;20619;-88
2022/12/10 03:36:00;;;;;;;43.55;16.63;;;;;;;-0.82;100.00;99893.72;6307935;28;20048;-88
2022/12/10 03:39:02;;;;;;;47.97;17.50;;;;;;;-0.82;100.00;99889.47;6308735;28;20520;-88
2022/12/10 03:42:05;;;;;;;41.45;15.40;;;;;;;-0.81;100.00;99885.22;6307938;28;20040;-88
2022/12/10 03:45:08;;;;;;;43.70;15.27;;;;;;;-0.77;100.00;99881.63;6309624;28;20405;-88
2022/12/10 03:48:09;;;;;;;46.30;16.95;;;;;;;-0.83;100.00;99887.81;6308560;28;20078;-88
2022/12/10 03:51:11;;;;;;;41.20;15.63;;;;;;;-0.89;100.00;99895.69;6308927;28;20040;-88
2022/12/10 03:54:13;;;;;;;47.13;17.52;;;;;;;-0.89;100.00;99893.16;6308889;28;20121;-88
2022/12/10 03:57:15;;;;;;;40.85;15.98;;;;;;;-0.88;100.00;99892.25;6304446;28;20040;-88
2022/12/10 04:00:17;;;;;;;43.63;14.82;;;;;;;-0.88;100.00;99890.53;6306137;28;20040;-88
2022/12/10 04:03:18;;;;;;;47.85;16.27;;;;;;;-0.88;100.00;99885.44;6307225;28;20047;-88
2022/12/10 04:06:21;;;;;;;43.08;15.57;;;;;;;-0.87;100.00;99898.97;6308642;28;20064;-88
2022/12/10 04:09:23;;;;;;;39.53;14.82;;;;;;;-0.86;100.00;99887.94;6309141;28;20521;-88
2022/12/10 04:12:25;;;;;;;39.83;14.95;;;;;;;-0.88;100.00;99895.63;6307869;28;20054;-88
2022/12/10 04:18:47;;;;;;;38.97;16.15;;;;;;;-0.95;100.00;99906.91;6305317;28;20044;-88
2022/12/10 04:28:36;;;;;;;40.55;15.82;;;;;;;-1.07;100.00;99902.34;6307725;28;20052;-88
2022/12/10 04:31:37;;;;;;;43.05;16.05;;;;;;;-1.08;100.00;99906.59;6306501;28;20417;-88
2022/12/10 04:34:39;;;;;;;42.08;15.73;;;;;;;-1.09;100.00;99899.06;6305035;28;20524;-88
2022/12/10 04:37:41;;;;;;;38.28;14.85;;;;;;;-1.10;100.00;99902.47;6308127;28;20607;-88
2022/12/10 04:40:42;;;;;;;40.63;16.17;;;;;;;-1.11;100.00;99906.75;6306902;28;20044;-88
2022/12/10 04:43:44;;;;;;;40.17;14.95;;;;;;;-1.17;100.00;99903.59;6313908;28;20461;-88
2022/12/10 04:46:47;;;;;;;43.22;16.45;;;;;;;-1.19;100.00;99907.91;6293941;28;20044;-89
2022/12/10 04:49:49;;;;;;;35.78;14.55;;;;;;;-1.21;100.00;99897.84;6312835;28;20047;-88
2022/12/10 04:52:51;;;;;;;43.15;15.55;;;;;;;-1.21;100.00;99902.91;6312821;28;20040;-88
2022/12/10 04:55:53;;;;;;;42.33;14.93;;;;;;;-1.26;100.00;99894.66;6312963;28;20044;-88
2022/12/10 04:58:56;;;;;;;37.35;13.60;;;;;;;-1.31;100.00;99905.00;6313329;28;20378;-88
2022/12/10 05:01:58;;;;;;;38.85;13.27;;;;;;;-1.35;100.00;99905.19;6311587;28;20036;-88
2022/12/10 05:05:00;;;;;;;34.42;13.80;;;;;;;-1.40;100.00;99909.63;6312745;28;20083;-88
2022/12/10 05:08:02;;;;;;;40.92;15.40;;;;;;;-1.38;100.00;99916.28;6312942;28;20146;-88
2022/12/10 05:11:10;;;;;;;40.65;16.10;;;;;;;-1.35;100.00;99911.06;6311951;28;20048;-89
2022/12/10 05:14:13;;;;;;;37.72;14.68;;;;;;;-1.28;100.00;99914.22;6311609;28;20518;-88
2022/12/10 05:17:15;;;;;;;36.30;15.82;;;;;;;-1.22;100.00;99919.03;6311986;28;20389;-88
2022/12/10 05:20:16;;;;;;;39.40;14.90;;;;;;;-1.11;100.00;99916.06;6312703;28;20061;-88
2022/12/10 05:23:31;;;;;;;36.67;13.93;;;;;;;-1.11;100.00;99909.28;6310837;28;20048;-88
2022/12/10 05:26:33;;;;;;;42.05;15.57;;;;;;;-1.08;100.00;99909.16;6310840;28;20855;-88
2022/12/10 05:29:35;;;;;;;36.90;13.57;;;;;;;-1.10;100.00;99913.44;6312290;28;20040;-88
2022/12/10 05:32:36;;;;;;;40.35;15.25;;;;;;;-1.12;100.00;99912.72;6305841;28;20039;-88
2022/12/10 05:35:41;;;;;;;35.58;13.43;;;;;;;-1.15;100.00;99910.28;6308706;28;20105;-89
2022/12/10 05:38:43;;;;;;;36.13;14.73;;;;;;;-1.23;100.00;99917.38;6310669;28;20384;-89
2022/12/10 05:41:45;;;;;;;37.15;14.85;;;;;;;-1.21;100.00;99914.81;6306075;28;20040;-88
2022/12/10 05:44:47;;;;;;;36.00;13.35;;;;;;;-1.23;100.00;99917.38;6310215;28;20101;-88
2022/12/10 05:47:49;;;;;;;36.75;14.35;;;;;;;-1.19;100.00;99920.63;6305642;28;20051;-89
2022/12/10 05:50:50;;;;;;;32.72;13.68;;;;;;;-1.15;100.00;99917.91;6307811;28;20422;-88
2022/12/10 05:53:54;;;;;;;35.28;13.73;;;;;;;-1.12;100.00;99925.41;6310368;28;20080;-89
2022/12/10 05:56:55;;;;;;;37.67;13.73;;;;;;;-1.13;100.00;99922.94;6308309;28;20044;-88
2022/12/10 05:59:57;;;;;;;32.65;13.85;;;;;;;-1.17;100.00;99932.41;6317107;28;20486;-88
2022/12/10 06:02:59;;;;;;;34.80;13.25;;;;;;;-1.13;100.00;99938.16;6309757;28;20524;-89
2022/12/10 06:06:00;;;;;;;32.35;13.27;;;;;;;-1.09;100.00;99937.97;6308535;28;20131;-88
2022/12/10 06:09:03;;;;;;;30.42;12.25;;;;;;;-1.08;100.00;99942.16;6309630;28;20064;-88
2022/12/10 06:12:05;;;;;;;28.73;12.75;;;;;;;-1.09;100.00;99943.06;6305474;28;20096;-89
2022/12/10 06:15:07;;;;;;;29.13;11.52;;;;;;;-1.05;100.00;99950.53;6309605;28;20055;-88
2022/12/10 06:18:09;;;;;;;35.10;14.02;;;;;;;-1.11;100.00;99944.81;6310006;28;20039;-88
2022/12/10 06:21:14;;;;;;;35.03;12.63;;;;;;;-1.14;100.00;99942.41;6300127;28;20453;-88
2022/12/10 06:24:15;;;;;;;33.60;13.30;;;;;;;-1.10;100.00;99949.00;6306510;28;20038;-88
2022/12/10 06:27:17;;;;;;;32.10;12.50;;;;;;;-1.16;100.00;99951.81;6309267;28;20803;-88
2022/12/10 06:30:19;;;;;;;33.25;12.38;;;;;;;-1.16;100.00;99961.97;6308456;28;20044;-88
2022/12/10 06:33:22;;;;;;;33.10;13.57;;;;;;;-1.12;100.00;99960.13;6312203;28;20047;-88
2022/12/10 06:36:23;;;;;;;31.08;11.90;;;;;;;-1.17;100.00;99957.78;6305161;28;20047;-89
2022/12/10 06:39:25;;;;;;;28.88;12.55;;;;;;;-1.18;100.00;99962.91;6311182;28;20043;-89
2022/12/10 06:42:27;;;;;;;28.13;11.23;;;;;;;-1.19;100.00;99956.16;6310516;28;20077;-88
2022/12/10 06:45:29;;;;;;;29.45;11.77;;;;;;;-1.15;100.00;99965.31;6311205;28;20067;-88
2022/12/10 06:48:31;;;;;;;29.30;12.32;;;;;;;-1.16;100.00;99958.59;6312411;28;20493;-88
2022/12/10 06:51:33;;;;;;;29.33;10.93;;;;;;;-1.17;100.00;99965.41;6309390;28;20482;-88
2022/12/10 06:54:35;;;;;;;32.80;11.38;;;;;;;-1.18;100.00;99968.00;6311338;28;20036;-89
2022/12/10 06:57:37;;;;;;;31.42;12.05;;;;;;;-1.18;100.00;99973.06;6311654;28;20044;-88
2022/12/10 07:00:38;;;;;;;28.08;12.40;;;;;;;-1.20;100.00;99975.66;6306395;28;20126;-89
2022/12/10 07:03:41;;;;;;;28.00;11.63;;;;;;;-1.18;100.00;99968.81;6310257;28;20405;-88
2022/12/10 07:06:43;;;;;;;28.73;11.70;;;;;;;-1.17;100.00;99977.25;6309016;28;20381;-89
2022/12/10 07:09:44;;;;;;;26.00;10.75;;;;;;;-1.21;100.00;99975.75;6311113;28;20323;-89
2022/12/10 07:12:46;;;;;;;28.40;11.45;;;;;;;-1.17;100.00;99980.63;6311535;28;20093;-88
2022/12/10 07:15:48;;;;;;;25.13;11.95;;;;;;;-1.13;100.00;99983.88;6308979;28;20493;-88
2022/12/10 07:18:51;;;;;;;32.88;13.05;;;;;;;-1.15;100.00;99983.91;6309078;28;20044;-89
2022/12/10 07:21:53;;;;;;;25.20;11.30;;;;;;;-1.14;100.00;99990.66;6306598;28;20044;-88
2022/12/10 07:24:55;;;;;;;30.30;12.02;;;;;;;-1.14;100.00;99992.38;6307798;28;20096;-88
2022/12/10 07:27:57;;;;;;;31.50;13.98;;;;;;;-1.16;100.00;99991.63;6307146;28;20048;-88
2022/12/10 07:31:07;;;;;;;33.85;13.20;;;;;;;-1.16;100.00;99997.50;6306507;28;20047;-88
2022/12/10 07:34:10;;;;;;;32.50;12.60;;;;;;;-1.12;100.00;100000.75;6304155;28;20047;-88
2022/12/10 07:37:12;;;;;;;23.90;12.13;;;;;;;-1.12;100.00;100009.22;6306504;28;20052;-88
2022/12/10 07:40:13;;;;;;;28.60;11.70;;;;;;;-1.14;100.00;100008.44;6309682;28;20085;-88
2022/12/10 07:43:15;;;;;;;25.63;9.90;;;;;;;-1.14;100.00;100016.06;6308242;28;20051;-89
2022/12/10 07:46:29;;;;;;;23.50;10.30;;;;;;;-1.09;100.00;100021.78;6305482;28;20113;-88
2022/12/10 07:49:31;;;;;;;24.35;10.48;;;;;;;-1.12;100.00;100027.00;6307994;28;20036;-89
2022/12/10 07:52:33;;;;;;;21.58;10.85;;;;;;;-1.12;100.00;100023.59;6298598;28;20136;-89
2022/12/10 07:55:35;;;;;;;21.55;10.73;;;;;;;-1.05;100.00;100024.19;6304341;28;20562;-88
2022/12/10 07:58:40;;;;;;;22.45;10.10;;;;;;;-1.08;100.00;100025.97;6308770;28;20627;-88
2022/12/10 08:01:42;;;;;;;22.15;10.18;;;;;;;-1.11;100.00;100030.34;6308765;28;20047;-88
2022/12/10 08:04:43;;;;;;;18.63;9.15;;;;;;;-1.14;100.00;100028.75;6306109;28;20139;-89
2022/12/10 08:07:46;;;;;;;22.20;9.75;;;;;;;-1.11;100.00;100025.28;6309299;28;20040;-88
2022/12/10 08:10:48;;;;;;;22.05;9.77;;;;;;;-1.15;100.00;100027.09;6302225;28;20587;-88
2022/12/10 08:13:51;;;;;;;20.35;9.38;;;;;;;-1.14;100.00;100030.47;6308769;28;20323;-88
2022/12/10 08:16:58;;;;;;;18.92;9.15;;;;;;;-1.12;100.00;100033.75;6305810;28;20525;-88
2022/12/10 08:19:59;;;;;;;22.08;9.88;;;;;;;-1.11;100.00;100031.19;6306436;28;20044;-87
2022/12/10 08:23:01;;;;;;;23.85;9.93;;;;;;;-1.09;100.00;100029.41;6300890;28;20040;-88
2022/12/10 08:26:05;;;;;;;18.25;9.45;;;;;;;-1.06;100.00;100036.06;6309260;28;20036;-88
2022/12/10 08:29:08;;;;;;;20.65;9.63;;;;;;;-1.05;100.00;100039.44;6308852;28;20060;-88
2022/12/10 08:32:10;;;;;;;22.63;10.10;;;;;;;-1.04;100.00;100044.47;6309259;28;20051;-88
2022/12/10 08:35:12;;;;;;;20.75;10.27;;;;;;;-1.01;100.00;100051.97;6307873;28;20067;-88
2022/12/10 08:38:13;;;;;;;23.45;11.40;;;;;;;-1.02;100.00;100057.09;6309517;28;20035;-88
2022/12/10 08:41:21;;;;;;;23.73;10.75;;;;;;;-0.99;100.00;100050.19;6308971;28;20112;-88
2022/12/10 08:44:22;;;;;;;24.67;11.43;;;;;;;-0.97;100.00;100060.28;6306614;28;20044;-88
2022/12/10 08:47:24;;;;;;;24.02;11.35;;;;;;;-0.96;100.00;100059.41;6307252;28;20120;-88
2022/12/10 08:50:27;;;;;;;27.20;11.43;;;;;;;-0.92;100.00;100056.69;6303157;28;20048;-88
2022/12/10 08:53:29;;;;;;;34.35;12.43;;;;;;;-0.88;100.00;100057.38;6309450;28;20055;-88
2022/12/10 08:56:33;;;;;;;30.27;12.00;;;;;;;-0.84;100.00;100061.47;6307701;28;20089;-88
2022/12/10 08:59:35;;;;;;;28.13;12.38;;;;;;;-0.79;100.00;100063.84;6309639;28;20040;-88
2022/12/10 09:02:37;;;;;;;32.72;12.70;;;;;;;-0.71;100.00;100062.63;6307031;28;20047;-88
2022/12/10 09:05:38;;;;;;;32.17;12.40;;;;;;;-0.64;100.00;100064.94;6307548;28;20047;-88
2022/12/10 09:08:40;;;;;;;36.17;13.75;;;;;;;-0.62;100.00;100070.75;6308026;28;20044;-88
2022/12/10 09:11:45;;;;;;;30.65;11.70;;;;;;;-0.56;100.00;100073.06;6307189;28;20039;-88
2022/12/10 09:14:47;;;;;;;33.50;13.18;;;;;;;-0.52;100.00;100075.44;6307521;28;20051;-88
2022/12/10 09:17:52;;;;;;;33.35;11.90;;;;;;;-0.48;100.00;100081.22;6309080;28;20048;-88
2022/12/10 09:20:55;;;;;;;32.03;12.45;;;;;;;-0.50;100.00;100086.38;6309464;28;20409;-88
2022/12/10 09:23:59;;;;;;;28.55;11.32;;;;;;;-0.48;100.00;100083.75;6307920;28;20060;-88
2022/12/10 09:27:02;;;;;;;27.67;11.93;;;;;;;-0.42;100.00;100088.59;6305012;28;20055;-88
2022/12/10 09:30:05;;;;;;;31.33;12.85;;;;;;;-0.34;100.00;100094.19;6310873;28;20040;-88
2022/12/10 09:33:08;;;;;;;33.50;12.82;;;;;;;-0.28;100.00;100100.75;6313247;28;20050;-88
2022/12/10 09:36:12;;;;;;;29.27;11.27;;;;;;;-0.21;100.00;100094.50;6305379;28;20047;-88
2022/12/10 09:39:14;;;;;;;30.70;12.38;;;;;;;-0.19;100.00;100097.00;6307237;28;20410;-88
2022/12/10 09:42:38;;;;;;;32.28;12.07;;;;;;;-0.23;100.00;100094.56;6306018;28;20509;-88
2022/12/10 09:46:19;;;;;;;28.90;11.32;;;;;;;-0.33;100.00;100092.47;6308626;28;20036;-88
2022/12/10 09:49:39;;;;;;;28.83;11.70;;;;;;;-0.37;100.00;100094.31;6301792;28;20050;-88
2022/12/10 09:52:45;;;;;;;27.00;11.85;;;;;;;-0.40;100.00;100091.88;6308060;28;20043;-87
2022/12/10 09:55:48;;;;;;;26.23;10.57;;;;;;;-0.48;100.00;100089.66;6311894;28;20451;-87
2022/12/10 09:58:52;;;;;;;30.73;12.98;;;;;;;-0.56;100.00;100096.78;6312578;28;20052;-88
2022/12/10 10:02:29;;;;;;;32.85;13.48;;;;;;;-0.60;100.00;100089.31;6301480;28;20097;-87
2022/12/10 10:05:41;;;;;;;34.63;13.30;;;;;;;-0.69;100.00;100085.44;6306805;28;20036;-87
2022/12/10 10:08:50;;;;;;;31.85;12.05;;;;;;;-0.69;100.00;100093.91;6309549;28;20505;-87
2022/12/10 10:11:51;;;;;;;28.83;12.27;;;;;;;-0.66;100.00;100087.88;6300676;28;20490;-87
2022/12/10 10:14:53;;;;;;;30.65;11.25;;;;;;;-0.69;100.00;100098.16;6313246;28;20044;-88
2022/12/10 10:17:58;;;;;;;30.58;12.93;;;;;;;-0.74;100.00;100098.34;6311341;28;20043;-87
2022/12/10 10:21:01;;;;;;;29.33;12.30;;;;;;;-0.70;100.00;100089.69;6311836;28;20032;-87
2022/12/10 10:24:04;;;;;;;33.78;13.70;;;;;;;-0.64;100.00;100090.34;6311309;28;20040;-87
2022/12/10 10:27:20;;;;;;;28.65;12.55;;;;;;;-0.62;100.00;100091.94;6312753;28;20044;-87
2022/12/10 10:30:24;;;;;;;31.00;11.90;;;;;;;-0.61;100.00;100093.59;6311865;28;20048;-87
2022/12/10 10:33:25;;;;;;;27.13;12.30;;;;;;;-0.61;100.00;100092.78;6312370;28;20050;-87
2022/12/10 10:36:36;;;;;;;30.90;12.68;;;;;;;-0.58;100.00;100093.47;6302960;28;20044;-87
2022/12/10 10:39:38;;;;;;;29.70;13.32;;;;;;;-0.58;100.00;100092.63;6310929;28;20044;-87
2022/12/10 10:42:42;;;;;;;30.65;12.68;;;;;;;-0.56;100.00;100091.69;6311198;28;20097;-87
2022/12/10 10:45:59;;;;;;;34.08;13.02;;;;;;;-0.52;100.00;100097.47;6309449;28;20069;-87
2022/12/10 10:49:24;;;;;;;32.85;13.23;;;;;;;-0.47;100.00;100100.69;6296879;28;20052;-86
2022/12/10 10:52:38;;;;;;;31.80;13.05;;;;;;;-0.48;100.00;100099.00;6311174;28;20040;-86
2022/12/10 10:55:41;;;;;;;34.55;13.60;;;;;;;-0.48;100.00;100104.91;6317366;28;20088;-86
2022/12/10 10:59:03;;;;;;;30.15;12.25;;;;;;;-0.53;100.00;100103.44;6308635;28;20060;-86
2022/12/10 11:02:16;;;;;;;34.92;13.90;;;;;;;-0.53;100.00;100098.38;6311569;28;20184;-86
2022/12/10 11:05:31;;;;;;;29.92;13.10;;;;;;;-0.48;100.00;100110.00;6311807;28;20047;-86
2022/12/10 11:08:39;;;;;;;35.53;13.88;;;;;;;-0.48;100.00;100109.19;6304923;28;20521;-86
2022/12/10 11:11:41;;;;;;;32.88;14.18;;;;;;;-0.53;100.00;100113.63;6311143;28;20040;-86
2022/12/10 11:14:49;;;;;;;36.25;13.23;;;;;;;-0.56;100.00;100106.13;6305220;28;20047;-86
2022/12/10 11:17:54;;;;;;;34.33;14.80;;;;;;;-0.51;100.00;100115.22;6306086;28;20569;-86
2022/12/10 11:21:07;;;;;;;32.65;12.90;;;;;;;-0.55;100.00;100108.59;6301119;28;20125;-86
2022/12/10 11:24:12;;;;;;;29.67;12.30;;;;;;;-0.49;100.00;100105.00;6305839;28;20460;-86
2022/12/10 11:27:35;;;;;;;31.38;13.23;;;;;;;-0.44;100.00;100115.81;6311443;28;20516;-86
2022/12/10 11:30:48;;;;;;;35.35;13.50;;;;;;;-0.48;100.00;100101.53;6300593;28;20461;-86
2022/12/10 11:34:14;;;;;;;31.27;13.23;;;;;;;-0.51;100.00;100097.41;6310911;28;20051;-86
2022/12/10 11:37:46;;;;;;;30.30;12.55;;;;;;;-0.54;100.00;100096.72;6303569;28;20051;-86
2022/12/10 11:40:52;;;;;;;29.73;13.30;;;;;;;-0.57;100.00;100102.75;6303799;28;20537;-86
2022/12/10 11:44:18;;;;;;;37.53;15.23;;;;;;;-0.52;100.00;100097.47;6308513;28;20032;-86
2022/12/10 11:48:03;;;;;;;37.33;13.27;;;;;;;-0.45;100.00;100098.88;6308825;28;20043;-86
2022/12/10 11:51:27;;;;;;;33.47;13.45;;;;;;;-0.54;100.00;100101.81;6309335;28;20044;-86
2022/12/10 11:55:07;;;;;;;35.47;13.77;;;;;;;-0.56;100.00;100108.66;6308273;28;20047;-86
2022/12/10 11:58:22;;;;;;;29.90;12.55;;;;;;;-0.63;100.00;100109.78;6292357;28;20631;-86
2022/12/10 12:01:49;;;;;;;32.90;13.40;;;;;;;-0.66;100.00;100114.09;6310413;28;20399;-86
2022/12/10 12:05:28;;;;;;;30.23;12.18;;;;;;;-0.64;100.00;100110.69;6301491;28;20395;-86
2022/12/10 12:08:45;;;;;;;28.88;13.48;;;;;;;-0.62;100.00;100116.50;6299851;28;20055;-86
2022/12/10 12:12:11;;;;;;;28.63;12.48;;;;;;;-0.56;100.00;100118.81;6308046;28;20040;-86
2022/12/10 12:15:24;;;;;;;27.48;11.52;;;;;;;-0.55;100.00;100120.47;6322928;28;20421;-86
2022/12/10 12:19:02;;;;;;;27.02;11.35;;;;;;;-0.53;100.00;100118.69;6309619;28;20063;-86
2022/12/10 12:22:15;;;;;;;26.63;10.45;;;;;;;-0.51;100.00;100114.38;6303356;28;20067;-86
2022/12/10 12:25:26;;;;;;;25.98;11.38;;;;;;;-0.52;100.00;100115.25;6324321;28;20490;-85
2022/12/10 12:28:32;;;;;;;26.92;11.27;;;;;;;-0.54;100.00;100117.88;6308462;28;20506;-86
2022/12/10 12:31:37;;;;;;;24.38;10.75;;;;;;;-0.58;100.00;100118.06;6309576;28;20129;-86
2022/12/10 12:35:10;;;;;;;26.52;10.68;;;;;;;-0.55;100.00;100123.00;6309313;28;20048;-86
2022/12/10 12:38:56;;;;;;;24.15;10.10;;;;;;;-0.55;100.00;100113.66;6310109;28;20040;-86
2022/12/10 12:42:31;;;;;;;23.50;10.57;;;;;;;-0.52;100.00;100113.56;6247976;28;20068;-85
2022/12/10 12:45:57;;;;;;;23.55;10.30;;;;;;;-0.56;100.00;100109.47;6247145;28;20060;-86
2022/12/10 12:49:11;;;;;;;30.33;12.30;;;;;;;-0.56;100.00;100113.75;6245369;28;20127;-86
2022/12/10 12:52:40;;;;;;;31.85;12.95;;;;;;;-0.55;100.00;100105.22;6254265;28;20048;-86
2022/12/10 12:56:01;;;;;;;26.27;12.10;;;;;;;-0.56;100.00;100108.66;6243961;28;20094;-86
2022/12/10 12:59:09;;;;;;;31.13;13.63;;;;;;;-0.58;100.00;100107.88;6255792;28;20165;-86
2022/12/10 13:02:38;;;;;;;26.58;11.70;;;;;;;-0.64;100.00;100113.22;6254026;28;20379;-86
2022/12/10 13:05:40;;;;;;;27.27;12.32;;;;;;;-0.67;100.00;100109.09;6255191;28;20064;-86
2022/12/10 13:08:48;;;;;;;28.00;13.48;;;;;;;-0.64;100.00;100110.69;6251799;28;20055;-87
2022/12/10 13:12:02;;;;;;;28.65;12.10;;;;;;;-0.64;100.00;100116.59;6278514;28;20067;-86
2022/12/10 13:15:19;;;;;;;30.30;13.68;;;;;;;-0.62;100.00;100124.13;6312750;28;20545;-85
2022/12/10 13:18:35;;;;;;;27.52;13.30;;;;;;;-0.63;100.00;100122.50;6308268;28;20692;-85
2022/12/10 13:22:06;;;;;;;29.52;12.68;;;;;;;-0.65;100.00;100125.09;6310185;28;20036;-86
2022/12/10 13:25:17;;;;;;;27.20;11.60;;;;;;;-0.66;100.00;100126.81;6313067;28;20039;-86
2022/12/10 13:28:27;;;;;;;34.67;14.00;;;;;;;-0.67;100.00;100129.44;6314128;28;20577;-86
2022/12/10 13:31:36;;;;;;;24.13;11.85;;;;;;;-0.69;100.00;100131.19;6311795;28;20044;-86
2022/12/10 13:34:38;;;;;;;26.75;13.35;;;;;;;-0.71;100.00;100131.25;6311562;28;20496;-86
2022/12/10 13:38:20;;;;;;;26.65;10.65;;;;;;;-0.73;100.00;100130.47;6300384;28;20036;-86
2022/12/10 13:44:54;;;;;;;29.30;13.20;;;;;;;-0.81;100.00;100132.50;6313464;28;20048;-86
2022/12/10 13:48:15;;;;;;;30.52;12.52;;;;;;;-0.77;100.00;100136.56;6308760;28;20138;-86
2022/12/10 13:51:47;;;;;;;27.58;12.02;;;;;;;-0.84;100.00;100140.25;6281259;28;20116;-86
2022/12/10 13:55:16;;;;;;;29.52;13.65;;;;;;;-0.87;100.00;100143.72;6304906;28;20040;-86
2022/12/10 13:58:35;;;;;;;25.55;11.88;;;;;;;-0.84;100.00;100145.31;6307239;28;20040;-86
2022/12/10 14:01:55;;;;;;;28.60;11.88;;;;;;;-0.81;100.00;100149.44;6313781;28;20048;-86
2022/12/10 14:05:35;;;;;;;29.65;13.38;;;;;;;-0.78;100.00;100157.78;6306783;28;20048;-85
2022/12/10 14:08:53;;;;;;;30.38;12.70;;;;;;;-0.79;100.00;100163.75;6312233;28;20048;-86
2022/12/10 14:12:04;;;;;;;29.10;13.38;;;;;;;-0.79;100.00;100158.66;6308068;28;20486;-86
2022/12/10 14:15:21;;;;;;;25.70;12.70;;;;;;;-0.79;100.00;100161.22;6307626;28;20085;-86
2022/12/10 14:18:23;;;;;;;28.65;15.48;;;;;;;-0.82;100.00;100170.66;6311878;28;20040;-86
2022/12/10 14:21:26;;;;;;;28.95;13.10;;;;;;;-0.81;100.00;100162.97;6311130;28;20059;-86
2022/12/10 14:24:40;;;;;;;25.60;11.90;;;;;;;-0.87;100.00;100171.66;6312592;28;20036;-86
2022/12/10 14:27:41;;;;;;;22.48;11.18;;;;;;;-0.88;100.00;100171.72;6310824;28;20047;-86